Time;durP1;ratioP1;P1;durP2;ratioP2;P2;SDS_P1;SDS_P2;PMS_P1;PMS_P2;Temp;Humidity;BMP_temperature;BMP_pressure;BME280_temperature;BME280_humidity;BME280_pressure;Samples;Min_cycle;Max_cycle;Signal;HPM_P1;HPM_P2
2023/05/11 00:01:08;;;;;;;5.93;4.15;;;16.10;99.90;;;;;;4975240;28;20947;-65
2023/05/11 00:03:36;;;;;;;5.20;4.63;;;16.10;99.90;;;;;;4975488;28;20030;-65
2023/05/11 00:06:02;;;;;;;5.10;4.55;;;16.00;99.90;;;;;;4965355;28;20045;-65
2023/05/11 00:08:27;;;;;;;6.22;4.35;;;16.00;99.90;;;;;;4968862;28;20129;-65
2023/05/11 00:10:53;;;;;;;7.97;5.15;;;15.90;99.90;;;;;;4972914;28;20042;-64
2023/05/11 00:13:19;;;;;;;5.38;4.35;;;15.90;99.90;;;;;;4966556;28;20137;-65
2023/05/11 00:15:45;;;;;;;7.32;5.38;;;15.80;99.90;;;;;;4963841;28;20035;-65
2023/05/11 00:18:11;;;;;;;5.78;4.57;;;15.70;99.90;;;;;;4968206;28;20031;-65
2023/05/11 00:20:36;;;;;;;6.10;5.10;;;15.70;99.90;;;;;;4966948;28;20034;-64
2023/05/11 00:23:03;;;;;;;6.78;4.35;;;15.60;99.90;;;;;;4967170;28;20054;-65
2023/05/11 00:25:28;;;;;;;5.10;4.60;;;15.60;99.90;;;;;;4968749;28;20034;-64
2023/05/11 00:27:54;;;;;;;6.28;5.07;;;15.50;99.90;;;;;;4967417;28;20042;-65
2023/05/11 00:30:20;;;;;;;6.30;4.72;;;15.40;99.90;;;;;;4943923;28;20069;-65
2023/05/11 00:32:47;;;;;;;10.50;5.72;;;15.40;99.90;;;;;;4968978;28;20427;-65
2023/05/11 00:35:13;;;;;;;7.00;4.93;;;15.30;99.90;;;;;;4966479;28;20173;-65
2023/05/11 00:37:39;;;;;;;6.28;5.15;;;15.30;99.90;;;;;;4972384;28;20736;-65
2023/05/11 00:40:06;;;;;;;6.13;5.00;;;15.20;99.90;;;;;;4969517;28;20035;-65
2023/05/11 00:42:32;;;;;;;7.05;5.57;;;15.20;99.90;;;;;;4945737;28;20054;-64
2023/05/11 00:44:58;;;;;;;5.40;4.90;;;15.20;99.90;;;;;;4949797;28;20035;-65
2023/05/11 00:47:24;;;;;;;6.28;4.93;;;15.10;99.90;;;;;;4956661;28;20062;-65
2023/05/11 00:49:52;;;;;;;5.80;4.93;;;15.10;99.90;;;;;;4955555;28;20077;-64
2023/05/11 00:52:18;;;;;;;7.32;5.38;;;15.00;99.90;;;;;;4967846;28;20499;-65
2023/05/11 00:54:46;;;;;;;5.68;5.07;;;15.00;99.90;;;;;;4959496;28;20027;-63
2023/05/11 00:57:13;;;;;;;7.10;5.18;;;15.00;99.90;;;;;;4951946;28;20039;-63
2023/05/11 00:59:39;;;;;;;6.00;5.00;;;14.90;99.90;;;;;;4971689;28;20039;-65
2023/05/11 01:02:05;;;;;;;4.40;3.92;;;14.90;99.90;;;;;;4970494;28;20053;-64
2023/05/11 01:04:31;;;;;;;5.88;5.22;;;14.90;99.90;;;;;;4952720;28;20495;-64
2023/05/11 01:07:15;;;;;;;5.80;4.70;;;14.80;99.90;;;;;;4970639;28;20045;-65
2023/05/11 01:10:06;;;;;;;4.35;3.95;;;14.80;99.90;;;;;;4968769;28;20031;-64
2023/05/11 01:12:46;;;;;;;4.75;4.30;;;14.80;99.90;;;;;;4969206;28;20494;-64
2023/05/11 01:15:26;;;;;;;5.30;4.80;;;14.70;99.90;;;;;;4953483;28;20059;-64
2023/05/11 01:17:52;;;;;;;5.45;4.40;;;14.70;99.90;;;;;;4952973;28;20466;-65
2023/05/11 01:20:24;;;;;;;7.20;4.45;;;14.70;99.90;;;;;;4952868;28;20157;-65
2023/05/11 01:23:17;;;;;;;5.78;4.38;;;14.60;99.90;;;;;;4970870;28;20088;-64
2023/05/11 01:25:52;;;;;;;5.15;4.60;;;14.60;99.90;;;;;;4945857;28;20065;-65
2023/05/11 01:28:54;;;;;;;5.32;4.18;;;14.50;99.90;;;;;;4955895;28;20379;-64
2023/05/11 01:31:21;;;;;;;5.25;4.40;;;14.50;99.90;;;;;;4957724;28;20054;-65
2023/05/11 01:33:57;;;;;;;6.22;4.30;;;14.50;99.90;;;;;;4953163;28;20061;-65
2023/05/11 01:36:31;;;;;;;5.90;4.35;;;14.50;99.90;;;;;;4966745;28;20034;-64
2023/05/11 01:39:02;;;;;;;4.85;3.90;;;14.40;99.90;;;;;;4969415;28;20568;-65
2023/05/11 01:41:30;;;;;;;4.40;4.00;;;14.40;99.90;;;;;;4969363;28;20038;-64
2023/05/11 01:44:01;;;;;;;7.90;4.32;;;14.40;99.90;;;;;;4950328;28;20045;-65
2023/05/11 01:46:31;;;;;;;4.30;3.90;;;14.30;99.90;;;;;;4951900;28;20064;-64
2023/05/11 01:49:00;;;;;;;5.00;4.50;;;14.20;99.90;;;;;;4955396;28;20030;-65
2023/05/11 01:51:29;;;;;;;7.38;4.85;;;14.20;99.90;;;;;;4969509;28;20041;-64
2023/05/11 01:53:55;;;;;;;6.30;4.13;;;14.10;99.90;;;;;;4968882;28;20805;-65
2023/05/11 01:56:23;;;;;;;6.90;4.85;;;14.00;99.90;;;;;;4964674;28;20029;-66
2023/05/11 01:58:50;;;;;;;5.55;4.35;;;14.00;99.90;;;;;;4944567;28;20039;-67
2023/05/11 02:01:17;;;;;;;6.47;4.75;;;14.00;99.90;;;;;;4949492;28;20030;-67
2023/05/11 02:03:46;;;;;;;5.43;4.90;;;14.00;99.90;;;;;;4965920;28;20768;-64
2023/05/11 02:06:14;;;;;;;5.68;4.82;;;13.90;99.90;;;;;;4967535;28;20043;-64
2023/05/11 02:08:42;;;;;;;6.20;4.57;;;13.90;99.90;;;;;;4952391;28;20449;-64
2023/05/11 02:11:09;;;;;;;5.40;4.65;;;13.80;99.90;;;;;;4953062;28;20403;-64
2023/05/11 02:13:38;;;;;;;6.55;5.65;;;13.80;99.90;;;;;;4942993;28;20054;-66
2023/05/11 02:16:06;;;;;;;7.97;4.45;;;13.80;99.90;;;;;;4943936;28;20034;-66
2023/05/11 02:18:33;;;;;;;9.90;5.40;;;13.70;99.90;;;;;;4942033;28;20031;-66
2023/05/11 02:21:01;;;;;;;7.05;5.78;;;13.70;99.90;;;;;;4941932;28;20035;-66
2023/05/11 02:23:30;;;;;;;7.13;4.90;;;13.70;99.90;;;;;;4946726;28;20058;-66
2023/05/11 02:25:57;;;;;;;5.70;4.90;;;13.70;99.90;;;;;;4967125;28;20419;-67
2023/05/11 02:28:23;;;;;;;5.32;4.47;;;13.70;99.90;;;;;;4954770;28;20446;-65
2023/05/11 02:30:53;;;;;;;5.03;4.50;;;13.60;99.90;;;;;;4952388;28;20037;-66
2023/05/11 02:33:21;;;;;;;6.40;5.35;;;13.60;99.90;;;;;;4948751;28;20051;-66
2023/05/11 02:35:49;;;;;;;5.15;4.65;;;13.60;99.90;;;;;;4949638;28;20031;-65
2023/05/11 02:38:17;;;;;;;5.55;4.85;;;13.50;99.90;;;;;;4947370;28;20090;-66
2023/05/11 02:40:50;;;;;;;5.68;5.07;;;13.50;99.90;;;;;;4947062;28;20227;-66
2023/05/11 02:43:23;;;;;;;7.05;5.25;;;13.40;99.90;;;;;;4925355;28;20027;-66
2023/05/11 02:46:01;;;;;;;6.60;4.85;;;13.40;99.90;;;;;;4949054;28;20561;-66
2023/05/11 02:48:29;;;;;;;6.15;3.95;;;13.40;99.90;;;;;;4956274;28;20031;-66
2023/05/11 02:50:59;;;;;;;8.85;4.60;;;13.30;99.90;;;;;;4961526;28;20033;-66
2023/05/11 02:53:32;;;;;;;8.43;4.80;;;13.30;99.90;;;;;;4947335;28;20034;-67
2023/05/11 02:55:58;;;;;;;8.68;5.13;;;13.20;99.90;;;;;;4932836;28;20526;-66
2023/05/11 02:58:24;;;;;;;8.57;5.18;;;13.20;99.90;;;;;;4940692;28;20039;-64
2023/05/11 03:00:59;;;;;;;7.65;5.28;;;13.10;99.90;;;;;;4945449;28;20038;-65
2023/05/11 03:03:26;;;;;;;5.35;4.22;;;13.10;99.90;;;;;;4950473;28;20150;-64
2023/05/11 03:05:52;;;;;;;6.13;5.00;;;13.00;99.90;;;;;;4966808;28;20453;-65
2023/05/11 03:08:18;;;;;;;6.38;5.10;;;13.00;99.90;;;;;;4942503;28;20031;-64
2023/05/11 03:10:45;;;;;;;5.25;4.75;;;13.00;99.90;;;;;;4951099;28;20038;-64
2023/05/11 03:13:11;;;;;;;5.93;4.95;;;13.00;99.90;;;;;;4946444;28;20026;-64
2023/05/11 03:15:38;;;;;;;6.82;5.53;;;13.00;99.90;;;;;;4955303;28;20569;-64
2023/05/11 03:18:05;;;;;;;6.93;5.38;;;13.00;99.90;;;;;;4946142;28;20034;-64
2023/05/11 03:20:34;;;;;;;5.43;4.57;;;13.00;99.90;;;;;;4950570;28;20073;-64
2023/05/11 03:23:00;;;;;;;7.20;5.60;;;13.00;99.90;;;;;;4947000;28;20096;-64
2023/05/11 03:25:28;;;;;;;5.70;5.10;;;13.00;99.90;;;;;;4950617;28;20031;-64
2023/05/11 03:27:55;;;;;;;7.10;4.93;;;13.00;99.90;;;;;;4950338;28;20030;-64
2023/05/11 03:30:22;;;;;;;6.07;4.80;;;13.00;99.90;;;;;;4962093;28;20019;-64
2023/05/11 03:32:51;;;;;;;6.53;5.00;;;13.00;99.90;;;;;;4943448;28;20092;-65
2023/05/11 03:35:18;;;;;;;5.13;4.63;;;13.00;99.90;;;;;;4944301;28;20063;-64
2023/05/11 03:37:46;;;;;;;7.25;5.10;;;13.00;99.90;;;;;;4939974;28;20125;-65
2023/05/11 03:40:14;;;;;;;7.55;5.10;;;13.00;99.90;;;;;;4955484;28;20436;-64
2023/05/11 03:42:50;;;;;;;6.30;5.00;;;13.00;99.90;;;;;;4940583;28;20478;-65
2023/05/11 03:45:18;;;;;;;8.18;5.15;;;12.90;99.90;;;;;;4937380;28;20043;-65
2023/05/11 03:47:46;;;;;;;6.72;5.20;;;12.90;99.90;;;;;;4942490;28;20089;-65
2023/05/11 03:50:13;;;;;;;7.28;5.28;;;12.80;99.90;;;;;;4963358;28;20565;-65
2023/05/11 03:52:39;;;;;;;6.35;5.38;;;12.80;99.90;;;;;;4940020;28;20107;-65
2023/05/11 03:55:06;;;;;;;7.78;6.25;;;12.90;99.90;;;;;;4955589;28;20558;-64
2023/05/11 03:57:32;;;;;;;7.35;5.68;;;12.90;99.90;;;;;;4964752;28;20050;-65
2023/05/11 03:59:58;;;;;;;7.40;5.38;;;12.90;99.90;;;;;;4947882;28;20786;-65
2023/05/11 04:02:24;;;;;;;6.72;5.72;;;12.90;99.90;;;;;;4944341;28;20081;-65
2023/05/11 04:04:51;;;;;;;10.77;8.65;;;12.90;99.90;;;;;;4950915;28;20053;-64
2023/05/11 04:07:18;;;;;;;10.45;8.00;;;12.90;99.90;;;;;;4952470;28;20034;-64
2023/05/11 04:09:44;;;;;;;15.48;10.40;;;13.00;99.90;;;;;;4943716;28;20027;-65
2023/05/11 04:12:09;;;;;;;13.60;9.73;;;13.10;99.90;;;;;;4957528;28;20030;-65
2023/05/11 04:14:35;;;;;;;14.35;9.50;;;13.10;99.90;;;;;;4960869;28;20101;-65
2023/05/11 04:17:01;;;;;;;12.80;8.48;;;13.10;99.90;;;;;;4947208;28;20042;-65
2023/05/11 04:19:27;;;;;;;13.43;9.30;;;13.10;99.90;;;;;;4946950;28;20399;-65
2023/05/11 04:21:53;;;;;;;12.05;8.43;;;13.20;99.90;;;;;;4949829;28;20034;-65
2023/05/11 04:24:19;;;;;;;14.20;8.10;;;13.20;99.90;;;;;;4961700;28;20896;-65
2023/05/11 04:26:45;;;;;;;11.68;7.85;;;13.30;99.90;;;;;;4964589;28;20766;-65
2023/05/11 04:29:11;;;;;;;10.20;7.43;;;13.40;99.90;;;;;;4946599;28;20034;-64
2023/05/11 04:31:36;;;;;;;8.68;6.60;;;13.40;99.90;;;;;;4948898;28;20109;-64
2023/05/11 04:34:07;;;;;;;9.93;7.03;;;13.50;99.90;;;;;;4950015;28;20034;-65
2023/05/11 04:36:33;;;;;;;10.23;8.05;;;13.60;99.90;;;;;;4966916;28;20031;-64
2023/05/11 04:38:58;;;;;;;11.77;7.22;;;13.80;99.90;;;;;;4966526;28;20069;-64
2023/05/11 04:41:24;;;;;;;8.98;7.10;;;13.90;99.90;;;;;;4964549;28;20032;-65
2023/05/11 04:43:51;;;;;;;7.50;6.35;;;14.00;99.90;;;;;;4952449;28;20038;-65
2023/05/11 04:46:17;;;;;;;9.15;6.95;;;14.00;99.90;;;;;;4945952;28;20055;-64
2023/05/11 04:48:43;;;;;;;8.85;6.07;;;14.20;99.90;;;;;;4953038;28;20050;-65
2023/05/11 04:51:10;;;;;;;8.10;6.22;;;14.20;99.90;;;;;;4950446;28;20031;-65
2023/05/11 04:53:42;;;;;;;9.48;6.47;;;14.30;99.90;;;;;;4964374;28;20917;-65
2023/05/11 04:56:09;;;;;;;7.93;6.40;;;14.40;99.90;;;;;;4945081;28;20041;-65
2023/05/11 04:58:35;;;;;;;9.18;6.57;;;14.50;99.90;;;;;;4952363;28;20030;-65
2023/05/11 05:01:01;;;;;;;7.35;5.88;;;14.50;99.90;;;;;;4950333;28;20745;-65
2023/05/11 05:03:27;;;;;;;7.60;6.07;;;14.60;99.90;;;;;;4967917;28;20035;-65
2023/05/11 05:05:54;;;;;;;8.02;6.03;;;14.70;99.90;;;;;;4945779;28;20042;-65
2023/05/11 05:08:20;;;;;;;7.50;5.88;;;14.80;99.90;;;;;;4944790;28;20035;-65
2023/05/11 05:10:47;;;;;;;6.85;5.57;;;14.90;99.90;;;;;;4944200;28;20035;-65
2023/05/11 05:13:15;;;;;;;7.15;5.78;;;15.00;99.90;;;;;;4961865;28;20073;-65
2023/05/11 05:15:41;;;;;;;6.07;5.15;;;15.10;99.90;;;;;;4950767;28;20124;-65
2023/05/11 05:18:07;;;;;;;6.32;5.35;;;15.40;99.90;;;;;;4961792;28;20737;-65
2023/05/11 05:20:34;;;;;;;7.32;5.53;;;15.60;99.90;;;;;;4965009;28;20845;-64
2023/05/11 05:23:00;;;;;;;6.88;5.40;;;15.80;99.90;;;;;;4941635;28;20038;-64
2023/05/11 05:25:26;;;;;;;5.38;4.60;;;16.10;99.90;;;;;;4967732;28;20454;-65
2023/05/11 05:27:53;;;;;;;6.22;4.55;;;16.50;99.00;;;;;;4950138;28;20106;-65
2023/05/11 05:30:19;;;;;;;5.60;4.40;;;16.80;97.80;;;;;;4952010;28;20058;-65
2023/05/11 05:32:46;;;;;;;5.00;4.50;;;17.30;96.70;;;;;;4952138;28;20034;-65
2023/05/11 05:35:12;;;;;;;5.95;4.40;;;17.80;96.30;;;;;;4964921;28;20033;-65
2023/05/11 05:37:38;;;;;;;5.72;4.20;;;18.20;95.50;;;;;;4964591;28;20042;-65
2023/05/11 05:40:05;;;;;;;5.13;4.30;;;18.70;94.50;;;;;;4946993;28;20865;-64
2023/05/11 05:42:34;;;;;;;7.78;3.90;;;19.20;93.30;;;;;;4952709;28;20037;-65
2023/05/11 05:44:59;;;;;;;4.25;3.85;;;19.60;91.90;;;;;;4935078;28;20065;-65
2023/05/11 05:47:26;;;;;;;8.98;4.03;;;19.90;90.20;;;;;;4949151;28;20044;-65
2023/05/11 05:49:51;;;;;;;5.70;3.50;;;20.10;88.70;;;;;;4950042;28;20860;-65
2023/05/11 05:52:17;;;;;;;5.50;3.60;;;20.20;86.10;;;;;;4950874;28;20026;-65
2023/05/11 05:54:45;;;;;;;5.70;4.07;;;20.10;84.80;;;;;;4949334;28;20034;-65
2023/05/11 05:57:11;;;;;;;5.13;3.58;;;20.00;85.50;;;;;;4948214;28;20046;-65
2023/05/11 05:59:37;;;;;;;6.13;3.55;;;20.10;85.50;;;;;;4964941;28;20035;-65
2023/05/11 06:02:05;;;;;;;5.47;4.10;;;20.10;85.40;;;;;;4949984;28;20037;-65
2023/05/11 06:04:31;;;;;;;5.28;3.22;;;20.10;82.50;;;;;;4952485;28;20030;-65
2023/05/11 06:06:58;;;;;;;5.90;3.55;;;20.00;84.00;;;;;;4946662;28;20027;-66
2023/05/11 06:09:24;;;;;;;4.68;3.60;;;20.10;82.00;;;;;;4955670;28;20033;-65
2023/05/11 06:11:52;;;;;;;4.10;3.63;;;20.30;82.30;;;;;;4966446;28;20058;-65
2023/05/11 06:14:21;;;;;;;5.78;3.58;;;20.40;81.00;;;;;;4948606;28;20030;-65
2023/05/11 06:16:48;;;;;;;11.10;3.55;;;20.50;79.50;;;;;;4948998;28;20475;-65
2023/05/11 06:19:14;;;;;;;3.67;3.35;;;20.70;78.20;;;;;;4948109;28;20043;-65
2023/05/11 06:21:41;;;;;;;4.60;3.20;;;20.70;77.20;;;;;;4953772;28;20034;-65
2023/05/11 06:24:08;;;;;;;7.70;3.45;;;20.50;76.80;;;;;;4947497;28;20464;-65
2023/05/11 06:26:35;;;;;;;11.05;3.30;;;20.30;78.00;;;;;;4956347;28;20122;-65
2023/05/11 06:29:01;;;;;;;9.55;3.28;;;20.00;79.70;;;;;;4948980;28;20066;-65
2023/05/11 06:31:28;;;;;;;5.20;3.33;;;19.90;81.10;;;;;;4950581;28;20022;-65
2023/05/11 06:33:54;;;;;;;9.05;3.35;;;20.00;79.50;;;;;;4969364;28;20421;-65
2023/05/11 06:36:24;;;;;;;23.60;7.07;;;20.00;79.00;;;;;;4955176;28;20485;-65
2023/05/11 06:38:50;;;;;;;7.57;3.33;;;20.10;79.30;;;;;;4967637;28;20042;-65
2023/05/11 06:41:16;;;;;;;5.47;3.35;;;19.90;78.40;;;;;;4947322;28;20194;-65
2023/05/11 06:43:42;;;;;;;4.88;3.20;;;19.90;78.90;;;;;;4961048;28;20038;-65
2023/05/11 06:46:19;;;;;;;4.82;3.00;;;19.70;78.90;;;;;;4947764;28;20034;-65
2023/05/11 06:48:45;;;;;;;4.07;3.00;;;19.70;79.80;;;;;;4951581;28;20026;-65
2023/05/11 06:51:11;;;;;;;7.82;3.25;;;19.70;79.40;;;;;;4942367;28;20088;-65
2023/05/11 06:53:38;;;;;;;4.65;2.60;;;19.80;79.40;;;;;;4961613;28;20027;-65
2023/05/11 06:56:04;;;;;;;4.22;2.63;;;19.70;77.80;;;;;;4944817;28;20039;-64
2023/05/11 06:58:30;;;;;;;6.80;2.90;;;19.60;77.80;;;;;;4956421;28;20069;-65
2023/05/11 07:00:56;;;;;;;5.35;3.03;;;19.50;77.40;;;;;;4962952;28;20069;-65
2023/05/11 07:03:22;;;;;;;6.15;2.97;;;19.40;78.20;;;;;;4964453;28;20035;-65
2023/05/11 07:05:47;;;;;;;5.38;2.55;;;19.40;77.30;;;;;;4968303;28;20101;-65
2023/05/11 07:08:13;;;;;;;4.95;3.00;;;19.40;77.40;;;;;;4954540;28;20195;-65
2023/05/11 07:10:40;;;;;;;3.63;2.65;;;19.50;77.50;;;;;;4965432;28;20809;-65
2023/05/11 07:13:06;;;;;;;4.25;2.53;;;19.50;78.00;;;;;;4958483;28;20040;-65
2023/05/11 07:15:32;;;;;;;5.30;2.70;;;19.70;77.50;;;;;;4959339;28;20555;-65
2023/05/11 07:18:00;;;;;;;3.22;2.47;;;19.70;76.40;;;;;;4965374;28;20042;-65
2023/05/11 07:20:26;;;;;;;4.65;2.70;;;19.80;75.80;;;;;;4963658;28;20034;-65
2023/05/11 07:22:55;;;;;;;9.65;5.95;;;19.70;77.80;;;;;;4962141;28;20039;-65
2023/05/11 07:25:21;;;;;;;9.57;3.10;;;19.70;77.00;;;;;;4957955;28;20863;-65
2023/05/11 07:27:47;;;;;;;3.17;2.65;;;19.70;74.80;;;;;;4963521;28;20034;-65
2023/05/11 07:30:13;;;;;;;4.30;3.03;;;19.70;75.50;;;;;;4961253;28;20027;-65
2023/05/11 07:32:38;;;;;;;3.33;2.58;;;19.80;75.10;;;;;;4963770;28;20096;-65
2023/05/11 07:35:05;;;;;;;3.90;2.60;;;19.80;74.60;;;;;;4961648;28;20792;-65
2023/05/11 07:37:30;;;;;;;5.22;2.70;;;20.00;75.10;;;;;;4964291;28;20533;-65
2023/05/11 07:39:56;;;;;;;4.32;2.67;;;20.10;75.40;;;;;;4960477;28;20034;-65
2023/05/11 07:42:22;;;;;;;6.60;2.72;;;20.10;74.00;;;;;;4964131;28;20050;-65
2023/05/11 07:44:48;;;;;;;3.67;2.50;;;20.20;74.00;;;;;;4964778;28;20050;-65
2023/05/11 07:47:14;;;;;;;5.15;2.58;;;20.30;74.40;;;;;;4963917;28;20034;-65
2023/05/11 07:49:40;;;;;;;2.95;2.40;;;20.40;73.40;;;;;;4960560;28;20038;-65
2023/05/11 07:52:06;;;;;;;2.72;2.33;;;20.50;72.90;;;;;;4963076;28;20034;-65
2023/05/11 07:54:32;;;;;;;2.63;2.40;;;20.70;74.10;;;;;;4960807;28;20471;-64
2023/05/11 07:56:57;;;;;;;4.45;2.83;;;20.80;71.80;;;;;;4961929;28;20450;-65
2023/05/11 07:59:23;;;;;;;5.10;2.85;;;21.00;72.00;;;;;;4965017;28;20114;-65
2023/05/11 08:01:49;;;;;;;2.75;2.50;;;20.90;70.70;;;;;;4964990;28;20706;-65
2023/05/11 08:04:15;;;;;;;5.00;2.70;;;20.90;70.30;;;;;;4965310;28;20031;-65
2023/05/11 08:06:41;;;;;;;3.50;2.67;;;20.90;70.90;;;;;;4968215;28;20419;-65
2023/05/11 08:09:07;;;;;;;3.72;2.42;;;21.00;71.30;;;;;;4960686;28;20030;-64
2023/05/11 08:11:33;;;;;;;4.70;2.40;;;21.00;70.30;;;;;;4964700;28;20028;-65
2023/05/11 08:13:59;;;;;;;4.15;2.50;;;20.90;68.90;;;;;;4962084;28;20059;-63
2023/05/11 08:16:24;;;;;;;4.63;2.70;;;21.00;70.10;;;;;;4964917;28;20416;-65
2023/05/11 08:18:50;;;;;;;5.82;2.35;;;20.70;67.70;;;;;;4964367;28;20073;-66
2023/05/11 08:21:16;;;;;;;2.97;2.65;;;20.60;69.60;;;;;;4963936;28;20038;-66
2023/05/11 08:23:42;;;;;;;2.95;2.10;;;20.50;69.70;;;;;;4968463;28;20031;-65
2023/05/11 08:26:08;;;;;;;2.67;2.15;;;20.50;70.10;;;;;;4971122;28;20054;-65
2023/05/11 08:28:33;;;;;;;7.95;2.42;;;20.60;70.90;;;;;;4960185;28;20117;-65
2023/05/11 08:30:59;;;;;;;9.82;2.60;;;20.70;70.70;;;;;;4968748;28;20042;-65
2023/05/11 08:33:26;;;;;;;4.13;2.40;;;20.90;69.90;;;;;;4959927;28;20042;-65
2023/05/11 08:35:52;;;;;;;3.40;2.22;;;21.00;68.30;;;;;;4968145;28;20085;-66
2023/05/11 08:38:18;;;;;;;5.05;2.30;;;21.00;66.40;;;;;;4959129;28;20034;-66
2023/05/11 08:40:47;;;;;;;3.95;2.60;;;21.10;66.90;;;;;;4962072;28;20834;-65
2023/05/11 08:43:15;;;;;;;5.75;2.42;;;21.20;68.50;;;;;;4947789;28;20503;-65
2023/05/11 08:45:46;;;;;;;2.92;2.40;;;21.30;67.50;;;;;;4951943;28;20045;-66
2023/05/11 08:48:14;;;;;;;8.35;2.33;;;21.40;66.70;;;;;;4963523;28;20030;-65
2023/05/11 08:50:40;;;;;;;2.80;2.60;;;21.50;66.00;;;;;;4965030;28;20026;-66
2023/05/11 08:53:06;;;;;;;5.82;2.60;;;21.50;65.70;;;;;;4964841;28;20043;-65
2023/05/11 08:55:33;;;;;;;2.67;2.22;;;21.70;65.10;;;;;;4966164;28;20085;-65
2023/05/11 08:58:01;;;;;;;4.95;2.53;;;21.90;64.10;;;;;;4965997;28;20038;-65
2023/05/11 09:00:28;;;;;;;4.47;2.88;;;22.10;64.70;;;;;;4966774;28;20058;-60
2023/05/11 09:02:55;;;;;;;2.33;2.13;;;22.30;64.20;;;;;;4969512;28;20038;-60
2023/05/11 09:05:22;;;;;;;2.40;2.20;;;22.50;63.70;;;;;;4969016;28;21057;-59
2023/05/11 09:07:51;;;;;;;4.82;2.40;;;22.40;60.00;;;;;;4974291;28;20034;-60
2023/05/11 09:10:17;;;;;;;5.20;3.33;;;22.40;61.60;;;;;;4968497;28;20535;-60
2023/05/11 09:12:43;;;;;;;5.43;3.75;;;22.60;62.70;;;;;;4967672;28;20053;-60
2023/05/11 09:15:09;;;;;;;5.82;2.80;;;22.70;60.40;;;;;;4967891;28;20669;-60
2023/05/11 09:17:35;;;;;;;4.88;2.70;;;22.90;61.70;;;;;;4961673;28;20093;-60
2023/05/11 09:20:05;;;;;;;4.28;3.00;;;23.20;60.00;;;;;;4968098;28;20037;-60
2023/05/11 09:22:44;;;;;;;5.13;2.60;;;23.20;60.40;;;;;;4970349;28;20387;-60
2023/05/11 09:25:11;;;;;;;3.75;2.67;;;23.40;57.80;;;;;;4969513;28;20498;-61
2023/05/11 09:27:45;;;;;;;5.43;2.67;;;23.40;58.90;;;;;;4965612;28;20058;-61
2023/05/11 09:30:12;;;;;;;7.13;2.92;;;23.50;60.20;;;;;;4968349;28;20033;-60
2023/05/11 09:32:58;;;;;;;3.08;2.42;;;23.80;58.30;;;;;;4968676;28;20847;-60
2023/05/11 09:35:29;;;;;;;2.38;2.17;;;23.90;57.50;;;;;;4961575;28;20573;-60
2023/05/11 09:38:10;;;;;;;5.85;2.65;;;23.90;56.70;;;;;;4967444;28;20053;-60
2023/05/11 09:40:45;;;;;;;3.25;2.25;;;23.80;56.70;;;;;;4970212;28;20107;-60
2023/05/11 09:43:18;;;;;;;4.90;2.80;;;24.00;55.60;;;;;;4968896;28;20035;-59
2023/05/11 09:45:49;;;;;;;2.35;2.13;;;24.00;57.20;;;;;;4968652;28;20038;-60
2023/05/11 09:48:18;;;;;;;2.47;2.28;;;23.90;56.60;;;;;;4947404;28;20039;-60
2023/05/11 09:50:44;;;;;;;2.38;2.10;;;23.80;55.40;;;;;;4964764;28;20642;-60
2023/05/11 09:53:10;;;;;;;3.78;3.38;;;24.10;56.60;;;;;;4959342;28;20034;-60
2023/05/11 09:55:36;;;;;;;6.65;4.60;;;24.20;56.40;;;;;;4969260;28;20042;-60
2023/05/11 09:58:03;;;;;;;4.40;3.80;;;24.20;55.50;;;;;;4959910;28;20131;-61
2023/05/11 10:00:29;;;;;;;10.82;8.38;;;24.20;58.20;;;;;;4946594;28;20051;-60
2023/05/11 10:03:00;;;;;;;9.85;5.25;;;24.40;56.80;;;;;;4963998;28;20039;-60
2023/05/11 10:05:26;;;;;;;3.55;2.20;;;24.50;54.90;;;;;;4961080;28;20041;-60
2023/05/11 10:08:02;;;;;;;4.53;2.85;;;24.50;54.20;;;;;;4962144;28;20034;-58
2023/05/11 10:10:30;;;;;;;7.20;3.08;;;24.40;53.60;;;;;;4965232;28;20034;-59
2023/05/11 10:12:58;;;;;;;4.82;3.50;;;24.30;54.00;;;;;;4960832;28;20039;-59
2023/05/11 10:15:26;;;;;;;2.47;2.28;;;24.20;53.50;;;;;;4964226;28;20037;-60
2023/05/11 10:17:54;;;;;;;8.32;3.63;;;24.00;52.80;;;;;;4962978;28;20035;-60
2023/05/11 10:20:21;;;;;;;4.10;2.63;;;23.90;53.40;;;;;;4964557;28;20038;-60
2023/05/11 10:22:49;;;;;;;3.65;2.40;;;23.70;53.80;;;;;;4967497;28;20050;-59
2023/05/11 10:25:15;;;;;;;5.35;2.28;;;23.60;54.20;;;;;;4964899;28;22008;-60
2023/05/11 10:27:41;;;;;;;3.25;2.20;;;23.70;55.90;;;;;;4966775;28;20057;-60
2023/05/11 10:30:09;;;;;;;2.83;1.73;;;23.80;52.70;;;;;;4960787;28;20108;-62
2023/05/11 10:32:36;;;;;;;3.28;2.10;;;23.80;51.50;;;;;;4966048;28;20022;-61
2023/05/11 10:35:03;;;;;;;2.78;1.85;;;23.80;51.90;;;;;;4960114;28;20491;-61
2023/05/11 10:37:30;;;;;;;3.70;1.98;;;23.60;52.30;;;;;;4962636;28;20705;-61
2023/05/11 10:39:56;;;;;;;2.67;1.77;;;23.70;51.90;;;;;;4960495;28;20035;-61
2023/05/11 10:42:59;;;;;;;1.70;1.35;;;24.00;51.10;;;;;;4963952;28;20031;-61
2023/05/11 10:46:04;;;;;;;7.68;1.58;;;24.20;50.90;;;;;;4958269;28;20105;-61
2023/05/11 10:48:44;;;;;;;2.22;1.58;;;24.30;49.90;;;;;;4933289;28;20206;-65
2023/05/11 10:51:22;;;;;;;3.42;1.50;;;24.50;49.50;;;;;;4961097;28;20038;-62
2023/05/11 10:54:05;;;;;;;5.47;1.83;;;24.70;49.40;;;;;;4961613;28;20126;-63
2023/05/11 10:56:55;;;;;;;4.57;1.60;;;24.90;49.20;;;;;;4959998;28;20027;-62
2023/05/11 10:59:57;;;;;;;3.80;1.50;;;25.00;48.60;;;;;;4962571;28;20847;-63
2023/05/11 11:02:30;;;;;;;1.92;1.30;;;24.50;46.20;;;;;;4962163;28;20031;-62
2023/05/11 11:04:57;;;;;;;3.28;1.30;;;24.20;47.60;;;;;;4963819;28;20097;-63
2023/05/11 11:07:23;;;;;;;3.40;1.90;;;23.80;47.20;;;;;;4962887;28;20656;-63
2023/05/11 11:09:51;;;;;;;3.58;2.05;;;23.50;48.90;;;;;;4964481;28;20037;-62
2023/05/11 11:12:17;;;;;;;3.67;2.25;;;23.40;49.70;;;;;;4959324;28;20566;-62
2023/05/11 11:14:57;;;;;;;2.67;2.03;;;23.40;51.10;;;;;;4962094;28;20097;-63
2023/05/11 11:17:26;;;;;;;5.72;2.40;;;23.50;50.30;;;;;;4961703;28;20110;-63
2023/05/11 11:19:53;;;;;;;1.88;1.70;;;23.30;50.30;;;;;;4962374;28;20034;-63
2023/05/11 11:22:34;;;;;;;4.95;2.42;;;23.30;51.10;;;;;;4966677;28;20041;-63
2023/05/11 11:25:01;;;;;;;6.18;2.30;;;23.30;49.60;;;;;;4963852;28;20041;-63
2023/05/11 11:27:39;;;;;;;2.63;1.70;;;23.40;50.40;;;;;;4966308;28;20106;-62
2023/05/11 11:30:23;;;;;;;1.75;1.60;;;23.50;50.00;;;;;;4961766;28;20034;-63
2023/05/11 11:32:53;;;;;;;2.55;1.70;;;23.50;48.90;;;;;;4961370;28;20034;-62
2023/05/11 11:35:51;;;;;;;6.80;1.65;;;23.40;49.40;;;;;;4962912;28;20721;-62
2023/05/11 11:38:18;;;;;;;3.05;1.55;;;23.40;48.70;;;;;;4916236;28;20054;-63
2023/05/11 11:40:51;;;;;;;3.90;1.85;;;23.50;49.70;;;;;;4970147;28;20469;-62
2023/05/11 11:43:22;;;;;;;3.72;1.70;;;23.60;49.60;;;;;;4961997;28;20070;-62
2023/05/11 11:45:59;;;;;;;4.70;1.58;;;23.70;49.40;;;;;;4960794;28;20070;-62
2023/05/11 11:48:34;;;;;;;4.47;1.30;;;23.50;47.60;;;;;;4962879;28;20038;-62
2023/05/11 11:51:10;;;;;;;1.60;1.20;;;23.40;47.40;;;;;;4965455;28;20030;-62
2023/05/11 11:53:36;;;;;;;1.60;1.25;;;23.40;46.00;;;;;;4961865;28;20039;-62
2023/05/11 11:56:03;;;;;;;2.95;1.20;;;23.20;46.60;;;;;;4965588;28;20041;-63
2023/05/11 11:58:44;;;;;;;1.67;1.42;;;23.30;47.40;;;;;;4965249;28;20030;-63
2023/05/11 12:01:23;;;;;;;1.35;1.20;;;23.50;46.90;;;;;;4961330;28;20113;-62
2023/05/11 12:04:11;;;;;;;3.38;1.27;;;23.70;49.00;;;;;;4962309;28;20065;-62
2023/05/11 12:06:39;;;;;;;2.20;1.40;;;23.80;47.10;;;;;;4964388;28;20181;-63
2023/05/11 12:09:06;;;;;;;3.10;1.60;;;23.90;47.00;;;;;;4964264;28;20804;-62
2023/05/11 12:11:32;;;;;;;3.05;1.98;;;23.80;46.00;;;;;;4963319;28;20027;-62
2023/05/11 12:14:00;;;;;;;2.38;1.80;;;23.80;47.80;;;;;;4966179;28;20861;-62
2023/05/11 12:16:25;;;;;;;1.92;1.58;;;23.80;46.20;;;;;;4965883;28;20046;-62
2023/05/11 12:18:53;;;;;;;3.28;1.55;;;23.60;46.60;;;;;;4962925;28;20116;-62
2023/05/11 12:21:25;;;;;;;2.70;2.25;;;23.50;47.20;;;;;;4962787;28;20387;-62
2023/05/11 12:23:53;;;;;;;3.22;1.67;;;23.50;48.80;;;;;;4962375;28;20846;-62
2023/05/11 12:26:23;;;;;;;4.38;1.98;;;23.30;48.30;;;;;;4963943;28;20080;-62
2023/05/11 12:28:50;;;;;;;3.30;2.10;;;23.10;48.00;;;;;;4968397;28;20034;-62
2023/05/11 12:31:18;;;;;;;2.35;1.58;;;23.10;49.20;;;;;;4969787;28;20357;-62
2023/05/11 12:33:49;;;;;;;5.57;1.60;;;23.10;47.90;;;;;;4951494;28;20030;-62
2023/05/11 12:36:16;;;;;;;2.50;1.50;;;23.10;48.50;;;;;;4969604;28;20117;-62
2023/05/11 12:38:46;;;;;;;1.85;1.30;;;23.10;49.10;;;;;;4973994;28;20119;-62
2023/05/11 12:41:21;;;;;;;3.00;1.38;;;22.90;46.90;;;;;;4975589;28;20034;-62
2023/05/11 12:43:48;;;;;;;1.83;1.40;;;23.00;48.50;;;;;;4969260;28;20992;-64
2023/05/11 12:46:13;;;;;;;4.45;1.55;;;23.10;47.40;;;;;;4969822;28;20082;-66
2023/05/11 12:48:40;;;;;;;2.50;1.70;;;23.20;47.80;;;;;;4969501;28;20113;-67
2023/05/11 12:51:05;;;;;;;5.15;1.52;;;23.30;46.90;;;;;;4962475;28;20037;-67
2023/05/11 12:53:35;;;;;;;7.32;4.22;;;23.40;48.70;;;;;;4948649;28;20019;-67